Time;durP1;ratioP1;P1;durP2;ratioP2;P2;SDS_P1;SDS_P2;PMS_P1;PMS_P2;Temp;Humidity;BMP_temperature;BMP_pressure;BME280_temperature;BME280_humidity;BME280_pressure;Samples;Min_cycle;Max_cycle;Signal;HPM_P1;HPM_P2
2022/05/08 00:00:06;;;;;;;23.00;14.65;;;16.30;75.90;;;;;;5097316;28;20454;-75
2022/05/08 00:02:32;;;;;;;24.08;15.38;;;16.30;75.80;;;;;;5096991;28;20039;-78
2022/05/08 00:04:58;;;;;;;23.40;15.30;;;16.20;75.80;;;;;;5097188;28;20073;-74
2022/05/08 00:10:00;;;;;;;22.83;16.52;;;16.30;76.00;;;;;;5115700;28;20044;-79
2022/05/08 00:12:26;;;;;;;;;;;16.20;75.90;;;;;;5097354;28;20288;-74
2022/05/08 00:14:52;;;;;;;23.20;15.35;;;16.10;75.60;;;;;;5080139;28;19916;-74
2022/05/08 00:17:24;;;;;;;21.50;14.95;;;16.10;75.80;;;;;;5096322;28;20028;-75
2022/05/08 00:19:50;;;;;;;22.35;15.13;;;16.10;76.00;;;;;;5079984;28;20118;-79
2022/05/08 00:22:18;;;;;;;25.17;16.33;;;16.10;76.10;;;;;;5078674;28;20035;-79
2022/05/08 00:24:57;;;;;;;22.98;15.43;;;16.00;76.00;;;;;;5096565;28;20485;-79
2022/05/08 00:27:24;;;;;;;23.20;14.88;;;16.00;76.10;;;;;;5114824;28;20036;-79
2022/05/08 00:29:50;;;;;;;20.88;15.23;;;15.90;76.00;;;;;;5115171;28;20028;-74
2022/05/08 00:32:16;;;;;;;20.80;13.02;;;15.90;76.00;;;;;;5114735;28;20036;-74
2022/05/08 00:34:42;;;;;;;23.45;14.93;;;15.90;76.00;;;;;;5115111;28;20395;-79
2022/05/08 00:37:08;;;;;;;20.83;13.43;;;15.90;75.90;;;;;;5113487;28;20395;-75
2022/05/08 00:39:34;;;;;;;21.70;14.43;;;15.90;75.80;;;;;;5114964;28;20378;-75
2022/05/08 00:42:00;;;;;;;23.45;14.25;;;15.90;75.90;;;;;;5078634;28;20121;-74
2022/05/08 00:44:26;;;;;;;23.85;14.77;;;15.80;75.90;;;;;;5079460;28;20414;-74
2022/05/08 00:46:55;;;;;;;21.98;13.85;;;15.80;75.90;;;;;;5114044;28;20397;-75
2022/05/08 00:49:22;;;;;;;20.75;14.52;;;15.80;75.90;;;;;;5114479;28;20031;-74
2022/05/08 00:51:51;;;;;;;19.17;13.57;;;15.80;75.90;;;;;;5095846;28;20035;-80
2022/05/08 00:54:18;;;;;;;20.83;14.40;;;15.80;75.60;;;;;;5113349;28;20047;-74
2022/05/08 00:56:44;;;;;;;20.27;14.02;;;15.80;75.70;;;;;;5114248;28;20031;-80
2022/05/08 00:59:10;;;;;;;;;;;15.80;75.00;;;;;;5114958;28;20047;-80
2022/05/08 01:01:37;;;;;;;21.77;14.40;;;15.70;75.40;;;;;;5095792;28;19915;-74
2022/05/08 01:04:04;;;;;;;22.98;14.32;;;15.60;75.90;;;;;;5079096;28;20035;-74
2022/05/08 01:06:46;;;;;;;20.52;13.50;;;15.50;76.40;;;;;;5095376;28;20028;-74
2022/05/08 01:09:12;;;;;;;20.77;14.23;;;15.50;75.80;;;;;;5095111;28;20423;-80
2022/05/08 01:11:38;;;;;;;20.42;13.68;;;15.40;75.60;;;;;;5113686;28;20074;-79
2022/05/08 01:14:04;;;;;;;20.38;13.35;;;15.50;76.30;;;;;;5095970;28;20196;-79
2022/05/08 01:16:33;;;;;;;19.23;13.48;;;15.50;76.20;;;;;;5095316;28;20034;-74
2022/05/08 01:18:59;;;;;;;20.33;13.52;;;15.50;75.90;;;;;;5096219;28;20050;-74
2022/05/08 01:21:44;;;;;;;23.23;14.13;;;15.50;75.80;;;;;;5078283;28;20032;-79
2022/05/08 01:24:30;;;;;;;21.85;14.43;;;15.50;76.10;;;;;;5094487;28;20058;-79
2022/05/08 01:26:59;;;;;;;21.95;13.60;;;15.50;76.10;;;;;;5113620;28;20042;-79
2022/05/08 01:29:25;;;;;;;18.88;12.73;;;15.30;76.00;;;;;;5078061;28;20032;-78
2022/05/08 01:31:53;;;;;;;22.23;15.13;;;15.30;76.20;;;;;;5078181;28;20450;-74
2022/05/08 01:34:19;;;;;;;20.38;14.05;;;15.30;76.20;;;;;;5095306;28;20040;-75
2022/05/08 01:36:45;;;;;;;19.25;12.90;;;15.30;76.30;;;;;;5095175;28;20106;-79
2022/05/08 01:39:11;;;;;;;20.75;13.55;;;15.20;76.10;;;;;;5112763;28;20042;-79
2022/05/08 01:41:37;;;;;;;19.65;13.30;;;15.20;76.10;;;;;;5095116;28;20488;-78
2022/05/08 01:44:04;;;;;;;19.95;13.05;;;15.20;76.10;;;;;;5113521;28;20119;-79
2022/05/08 01:46:30;;;;;;;;;;;15.20;76.20;;;;;;5078400;28;20480;-78
2022/05/08 01:48:56;;;;;;;20.23;12.45;;;15.10;75.90;;;;;;5112996;27;19915;-74
2022/05/08 01:51:23;;;;;;;19.00;11.90;;;15.10;76.10;;;;;;5102306;28;20024;-75
2022/05/08 01:53:49;;;;;;;20.73;12.02;;;15.00;76.10;;;;;;5094127;28;20126;-75
2022/05/08 01:56:15;;;;;;;19.25;12.60;;;15.00;76.20;;;;;;5094759;28;20110;-78
2022/05/08 01:58:43;;;;;;;21.70;12.07;;;14.90;76.30;;;;;;5078263;28;20396;-79
2022/05/08 02:01:10;;;;;;;20.88;14.20;;;14.90;76.40;;;;;;5094346;28;20088;-78
2022/05/08 02:03:38;;;;;;;18.15;12.40;;;14.80;76.40;;;;;;5113191;28;20484;-79
2022/05/08 02:06:07;;;;;;;21.23;12.55;;;14.80;76.40;;;;;;5094564;28;20028;-78
2022/05/08 02:08:33;;;;;;;22.08;14.15;;;14.80;76.40;;;;;;5112179;28;20085;-78
2022/05/08 02:10:59;;;;;;;19.50;12.73;;;14.70;76.40;;;;;;5094615;28;20036;-78
2022/05/08 02:13:25;;;;;;;19.92;11.27;;;14.70;76.40;;;;;;5094869;28;20031;-78
2022/05/08 02:15:51;;;;;;;13.30;8.57;;;14.70;76.30;;;;;;5094372;28;20039;-74
2022/05/08 02:18:17;;;;;;;14.73;9.30;;;14.60;76.10;;;;;;5094725;28;20036;-74
2022/05/08 02:20:43;;;;;;;13.13;8.43;;;14.60;76.00;;;;;;5112639;28;20028;-74
2022/05/08 02:23:10;;;;;;;;;;;14.50;76.10;;;;;;5113030;28;20039;-78
2022/05/08 02:25:37;;;;;;;14.48;9.23;;;14.50;75.80;;;;;;5062068;28;19963;-74
2022/05/08 02:28:04;;;;;;;13.60;9.60;;;14.50;75.80;;;;;;5058026;28;20402;-74
2022/05/08 02:30:31;;;;;;;16.38;10.23;;;14.50;75.80;;;;;;5074116;28;20047;-78
2022/05/08 02:32:57;;;;;;;14.10;8.93;;;14.40;75.80;;;;;;5074610;28;20035;-75
2022/05/08 02:35:24;;;;;;;17.50;9.65;;;14.40;75.80;;;;;;5074185;28;20439;-78
2022/05/08 02:37:53;;;;;;;14.07;9.02;;;14.40;75.80;;;;;;5074757;28;20036;-74
2022/05/08 02:40:22;;;;;;;12.85;8.68;;;14.30;75.70;;;;;;5053802;28;20032;-79
2022/05/08 02:42:52;;;;;;;14.02;9.52;;;14.30;75.70;;;;;;5042091;28;20037;-78
2022/05/08 02:45:19;;;;;;;15.23;9.52;;;14.20;75.60;;;;;;5058028;28;20039;-79
2022/05/08 02:47:47;;;;;;;37.25;9.05;;;14.20;75.70;;;;;;5058146;28;20039;-78
2022/05/08 02:50:13;;;;;;;35.92;8.38;;;14.10;75.70;;;;;;5077645;28;20116;-78
2022/05/08 02:52:41;;;;;;;21.65;8.35;;;14.00;76.00;;;;;;5078441;28;20115;-74
2022/05/08 03:00:44;;;;;;;13.65;9.50;;;13.90;75.60;;;;;;5075504;28;20110;-79
2022/05/08 03:03:12;;;;;;;15.73;9.85;;;13.90;75.70;;;;;;5075746;28;20068;-74
2022/05/08 03:05:43;;;;;;;14.85;9.70;;;13.90;75.80;;;;;;5057715;28;20055;-74
2022/05/08 03:08:10;;;;;;;16.25;10.32;;;13.80;75.90;;;;;;5058185;28;20515;-74
2022/05/08 03:13:22;;;;;;;18.85;11.73;;;13.80;76.20;;;;;;5080717;28;20504;-79
2022/05/08 03:15:57;;;;;;;19.02;13.20;;;13.90;76.20;;;;;;5060767;28;20020;-73
2022/05/08 03:18:26;;;;;;;22.20;14.30;;;14.00;76.20;;;;;;5095768;28;20032;-74
2022/05/08 03:20:52;;;;;;;22.23;13.65;;;13.90;77.20;;;;;;5095975;28;20028;-79
2022/05/08 03:23:18;;;;;;;22.05;13.50;;;14.00;76.40;;;;;;5095719;28;20042;-74
2022/05/08 03:25:44;;;;;;;23.33;14.02;;;14.10;76.40;;;;;;5093047;28;20075;-79
2022/05/08 03:28:18;;;;;;;23.50;14.35;;;14.10;76.20;;;;;;5098311;28;20058;-74
2022/05/08 03:30:45;;;;;;;23.85;14.38;;;14.20;76.20;;;;;;5080576;28;20024;-74
2022/05/08 03:33:22;;;;;;;25.63;14.68;;;14.20;76.50;;;;;;5081006;28;20542;-73
2022/05/08 03:35:49;;;;;;;22.48;13.23;;;14.30;77.20;;;;;;5080338;28;20468;-74
2022/05/08 03:38:15;;;;;;;23.20;13.90;;;14.30;77.30;;;;;;5115936;28;20043;-73
2022/05/08 03:40:41;;;;;;;24.52;14.38;;;14.40;77.20;;;;;;5096488;28;20057;-74
2022/05/08 03:43:07;;;;;;;26.33;13.30;;;14.50;77.40;;;;;;5097548;28;20039;-79
2022/05/08 03:45:33;;;;;;;21.25;12.77;;;14.60;77.20;;;;;;5115403;28;20043;-79
2022/05/08 03:48:02;;;;;;;20.05;12.88;;;14.70;77.20;;;;;;5116273;28;20053;-79
2022/05/08 03:50:29;;;;;;;19.73;13.00;;;14.70;77.20;;;;;;5102834;27;20038;-79
2022/05/08 03:53:14;;;;;;;20.73;12.60;;;14.80;77.20;;;;;;5099872;27;20122;-74
2022/05/08 03:55:40;;;;;;;20.00;12.35;;;14.80;77.50;;;;;;5099675;28;20040;-74
2022/05/08 03:58:06;;;;;;;;;;;14.80;77.40;;;;;;5098045;28;20039;-80
2022/05/08 04:00:32;;;;;;;21.48;12.55;;;14.90;77.00;;;;;;5096903;28;19937;-79
2022/05/08 04:03:01;;;;;;;18.17;12.50;;;15.00;77.20;;;;;;5115855;28;20036;-79
2022/05/08 04:05:29;;;;;;;22.30;12.95;;;15.00;78.50;;;;;;5079929;28;20063;-79
2022/05/08 04:07:55;;;;;;;21.70;11.50;;;15.00;77.00;;;;;;5115753;28;20036;-79
2022/05/08 04:10:21;;;;;;;17.60;11.38;;;15.00;77.00;;;;;;5075491;28;20477;-74
2022/05/08 04:12:47;;;;;;;23.63;11.63;;;15.10;77.60;;;;;;5093801;28;20119;-80
2022/05/08 04:18:18;;;;;;;19.08;11.20;;;15.20;77.50;;;;;;5095447;28;20024;-74
2022/05/08 04:20:44;;;;;;;20.25;11.43;;;15.20;77.20;;;;;;5062089;28;20028;-80
2022/05/08 04:25:55;;;;;;;19.38;10.50;;;15.30;77.10;;;;;;5110271;28;20058;-74
2022/05/08 04:28:21;;;;;;;18.98;11.07;;;15.30;76.30;;;;;;5114787;28;20469;-74
2022/05/08 04:30:49;;;;;;;17.70;11.75;;;15.40;76.70;;;;;;5096363;28;20032;-74
2022/05/08 04:33:15;;;;;;;18.02;11.57;;;15.40;76.50;;;;;;5079835;28;20040;-74
2022/05/08 04:35:41;;;;;;;16.02;10.20;;;15.40;76.50;;;;;;5096439;28;20418;-73
2022/05/08 04:38:11;;;;;;;;;;;15.50;76.50;;;;;;5097334;28;20095;-74
2022/05/08 04:40:41;;;;;;;16.25;9.65;;;15.40;76.10;;;;;;5095237;28;20342;-80
2022/05/08 04:43:07;;;;;;;16.00;10.18;;;15.50;75.90;;;;;;5096608;28;20488;-79
2022/05/08 04:45:34;;;;;;;15.43;10.45;;;15.50;75.90;;;;;;5095963;28;20073;-74
2022/05/08 04:48:00;;;;;;;;;;;15.50;75.40;;;;;;5097264;28;20032;-74
2022/05/08 04:50:26;;;;;;;16.92;10.15;;;15.60;75.90;;;;;;5079083;28;20269;-74
2022/05/08 04:52:52;;;;;;;16.42;10.15;;;15.60;75.60;;;;;;5096504;28;20388;-74
2022/05/08 04:55:18;;;;;;;;;;;15.60;75.50;;;;;;5114167;28;20047;-78
2022/05/08 04:57:44;;;;;;;15.27;9.02;;;15.60;75.40;;;;;;5096332;28;19915;-74
2022/05/08 05:00:13;;;;;;;14.50;9.18;;;15.70;75.10;;;;;;5114038;28;20373;-79
2022/05/08 05:02:44;;;;;;;13.98;8.75;;;15.70;74.90;;;;;;5114715;28;20040;-75
2022/05/08 05:05:11;;;;;;;14.48;8.40;;;15.70;75.00;;;;;;5094379;28;20031;-74
2022/05/08 05:07:39;;;;;;;;;;;15.70;74.80;;;;;;5079815;28;20031;-74
2022/05/08 05:10:25;;;;;;;17.85;9.35;;;15.70;74.70;;;;;;5094979;28;19920;-74
2022/05/08 05:12:54;;;;;;;15.68;8.70;;;15.80;74.60;;;;;;5113984;28;20039;-79
2022/05/08 05:15:20;;;;;;;15.52;8.48;;;15.80;74.20;;;;;;5095679;28;20484;-75
2022/05/08 05:17:48;;;;;;;15.23;8.85;;;15.80;74.30;;;;;;5095807;28;20043;-74
2022/05/08 05:20:14;;;;;;;15.30;9.32;;;15.80;74.30;;;;;;5095694;28;20043;-80
2022/05/08 05:22:40;;;;;;;;;;;15.80;74.20;;;;;;5096212;28;20499;-74
2022/05/08 05:25:07;;;;;;;13.57;9.32;;;15.80;74.20;;;;;;5077433;28;19920;-80
2022/05/08 05:27:33;;;;;;;18.17;9.32;;;15.90;73.90;;;;;;5078461;28;20077;-74
2022/05/08 05:29:59;;;;;;;17.80;10.73;;;15.90;74.10;;;;;;5095643;28;20028;-75
2022/05/08 05:32:25;;;;;;;;;;;15.90;73.90;;;;;;5095597;28;20051;-75
2022/05/08 05:34:52;;;;;;;16.35;9.57;;;15.90;73.70;;;;;;5095672;28;20011;-79
2022/05/08 05:37:18;;;;;;;13.88;8.48;;;16.00;72.80;;;;;;5095288;28;20027;-74
2022/05/08 05:40:02;;;;;;;14.23;7.78;;;16.00;73.20;;;;;;5094486;28;20552;-79
2022/05/08 05:42:28;;;;;;;12.10;8.38;;;16.10;73.10;;;;;;5094842;28;20057;-78
2022/05/08 05:44:57;;;;;;;13.60;8.50;;;16.10;72.90;;;;;;5113707;28;20028;-79
2022/05/08 05:50:09;;;;;;;13.27;8.45;;;16.20;72.80;;;;;;5097494;28;20081;-75
2022/05/08 05:52:36;;;;;;;12.98;8.35;;;16.20;72.30;;;;;;5095470;28;20027;-78
2022/05/08 05:57:48;;;;;;;13.20;8.00;;;16.30;72.10;;;;;;5098169;28;20070;-78
2022/05/08 06:00:17;;;;;;;;;;;16.40;71.40;;;;;;5113322;28;20028;-78
2022/05/08 06:02:48;;;;;;;13.70;7.95;;;16.40;71.90;;;;;;5078246;28;19920;-75
2022/05/08 06:05:15;;;;;;;14.20;8.20;;;16.50;71.40;;;;;;5095080;28;20396;-78
2022/05/08 06:07:42;;;;;;;12.98;8.07;;;16.50;71.20;;;;;;5113577;28;20023;-74
2022/05/08 06:10:11;;;;;;;12.25;7.90;;;16.60;71.10;;;;;;5093940;28;20032;-79
2022/05/08 06:12:37;;;;;;;11.32;7.38;;;16.60;70.70;;;;;;5094935;28;20159;-74
2022/05/08 06:15:06;;;;;;;11.77;7.60;;;16.60;70.00;;;;;;5094635;28;20148;-75
2022/05/08 06:17:32;;;;;;;12.00;7.18;;;16.70;69.70;;;;;;5095174;28;20028;-80
2022/05/08 06:19:58;;;;;;;;;;;16.80;70.30;;;;;;5095703;28;20031;-79
2022/05/08 06:22:24;;;;;;;14.15;7.18;;;16.80;69.60;;;;;;5112794;28;19939;-80
2022/05/08 06:24:50;;;;;;;13.90;8.23;;;16.90;69.90;;;;;;5113167;28;20052;-80
2022/05/08 06:27:17;;;;;;;12.18;7.57;;;16.90;69.80;;;;;;5093827;28;20040;-80
2022/05/08 06:29:45;;;;;;;11.38;7.25;;;17.00;69.70;;;;;;5094808;28;20032;-80
2022/05/08 06:32:11;;;;;;;13.85;7.38;;;17.00;69.40;;;;;;5077140;28;20507;-74
2022/05/08 06:34:37;;;;;;;15.40;7.78;;;17.10;69.10;;;;;;5112519;28;20070;-79
2022/05/08 06:37:04;;;;;;;18.20;7.95;;;17.20;68.90;;;;;;5094319;28;20085;-75
2022/05/08 06:39:30;;;;;;;15.32;7.80;;;17.30;68.70;;;;;;5077903;28;20036;-74
2022/05/08 06:41:56;;;;;;;11.90;7.32;;;17.40;68.50;;;;;;5076719;28;20023;-74
2022/05/08 06:44:22;;;;;;;12.73;7.60;;;17.50;67.90;;;;;;5093125;28;20040;-75
2022/05/08 06:46:51;;;;;;;14.05;7.80;;;17.50;67.90;;;;;;5094198;28;20443;-75
2022/05/08 06:49:17;;;;;;;11.18;7.70;;;17.60;67.60;;;;;;5077813;28;20400;-80
2022/05/08 06:51:46;;;;;;;15.10;6.93;;;17.70;67.60;;;;;;5094052;28;20031;-80
2022/05/08 06:54:12;;;;;;;13.25;6.95;;;17.80;67.40;;;;;;5094831;28;20046;-80
2022/05/08 06:56:41;;;;;;;10.35;7.25;;;17.80;67.10;;;;;;5093286;28;20503;-80
2022/05/08 07:01:54;;;;;;;14.13;7.30;;;17.90;66.70;;;;;;5112553;28;20047;-75
2022/05/08 07:04:20;;;;;;;14.93;6.78;;;17.90;66.50;;;;;;5093815;28;20189;-79
2022/05/08 07:06:47;;;;;;;11.60;7.32;;;18.00;66.50;;;;;;5094091;28;20031;-74
2022/05/08 07:09:16;;;;;;;13.18;7.40;;;18.10;65.70;;;;;;5094552;28;20031;-80
2022/05/08 07:11:47;;;;;;;11.85;7.93;;;18.10;65.80;;;;;;5093185;28;20034;-74
2022/05/08 07:14:35;;;;;;;11.73;6.85;;;18.20;65.40;;;;;;5078239;28;20040;-79
2022/05/08 07:17:02;;;;;;;14.68;8.27;;;18.30;65.30;;;;;;5094491;28;20441;-80
2022/05/08 07:19:28;;;;;;;17.80;8.32;;;18.30;64.90;;;;;;5112373;28;20063;-75
2022/05/08 07:21:54;;;;;;;11.77;7.03;;;18.30;64.90;;;;;;5094072;28;20077;-79
2022/05/08 07:24:20;;;;;;;13.52;8.75;;;18.30;64.90;;;;;;5077159;28;20508;-80
2022/05/08 07:26:47;;;;;;;;;;;18.30;65.00;;;;;;5093774;28;20036;-75
2022/05/08 07:29:13;;;;;;;13.98;6.80;;;18.30;65.50;;;;;;5081314;28;20414;-77
2022/05/08 07:37:11;;;;;;;12.18;7.13;;;18.20;64.50;;;;;;5114776;28;20495;-80
2022/05/08 07:39:40;;;;;;;12.07;6.45;;;18.10;64.40;;;;;;5091140;28;20039;-74
2022/05/08 07:42:06;;;;;;;11.52;7.13;;;18.10;64.80;;;;;;5079577;28;20388;-78
2022/05/08 07:44:32;;;;;;;10.15;6.82;;;18.00;64.00;;;;;;5097383;28;20084;-74
2022/05/08 07:47:06;;;;;;;12.13;7.72;;;18.00;64.60;;;;;;5115102;28;20032;-79
2022/05/08 07:49:32;;;;;;;12.85;7.05;;;18.00;64.60;;;;;;5098158;28;20497;-74
2022/05/08 07:51:58;;;;;;;;;;;18.00;64.40;;;;;;5115769;28;20419;-79
2022/05/08 07:54:26;;;;;;;12.25;6.70;;;18.00;64.80;;;;;;5115420;28;19960;-79
2022/05/08 07:56:52;;;;;;;10.73;6.72;;;18.00;64.50;;;;;;5092532;28;20085;-79
2022/05/08 07:59:18;;;;;;;12.05;7.40;;;18.00;64.40;;;;;;5080271;28;20032;-79
2022/05/08 08:01:44;;;;;;;9.82;6.93;;;18.00;64.60;;;;;;5096531;28;20513;-79
2022/05/08 08:04:11;;;;;;;12.98;7.53;;;18.00;64.60;;;;;;5096599;28;20036;-78
2022/05/08 08:06:39;;;;;;;13.45;8.10;;;18.00;64.60;;;;;;5114161;28;20080;-79
2022/05/08 08:09:05;;;;;;;13.00;7.57;;;18.00;64.40;;;;;;5096998;28;20035;-75
2022/05/08 08:11:32;;;;;;;12.05;7.97;;;18.10;64.40;;;;;;5113874;28;20039;-79
2022/05/08 08:13:58;;;;;;;12.55;7.15;;;18.10;63.60;;;;;;5079963;28;20067;-79
2022/05/08 08:16:24;;;;;;;10.90;6.60;;;18.10;64.20;;;;;;5079521;28;20028;-79
2022/05/08 08:18:54;;;;;;;;;;;18.10;64.30;;;;;;5115527;28;20494;-78
2022/05/08 08:21:20;;;;;;;10.35;6.65;;;18.20;64.20;;;;;;5096996;28;19915;-75
2022/05/08 08:23:46;;;;;;;;;;;18.20;63.20;;;;;;5097391;28;20392;-75
2022/05/08 08:26:17;;;;;;;25.92;7.55;;;18.20;63.90;;;;;;5095580;27;20010;-75
2022/05/08 08:28:46;;;;;;;10.07;7.35;;;18.20;64.50;;;;;;5114929;28;20077;-74
2022/05/08 08:31:13;;;;;;;13.45;8.60;;;18.30;63.60;;;;;;5114491;28;20027;-75
2022/05/08 08:33:42;;;;;;;10.73;7.03;;;18.30;63.50;;;;;;5096842;28;20405;-75
2022/05/08 08:36:10;;;;;;;13.10;7.57;;;18.30;63.20;;;;;;5096450;28;20558;-75
2022/05/08 08:38:37;;;;;;;13.20;6.75;;;18.30;63.20;;;;;;5096504;28;20089;-80
2022/05/08 08:41:05;;;;;;;11.23;6.60;;;18.40;63.00;;;;;;5114368;28;20031;-80
2022/05/08 08:49:09;;;;;;;12.50;7.15;;;18.70;62.20;;;;;;5099445;28;20397;-75
2022/05/08 08:51:38;;;;;;;12.40;7.05;;;18.80;62.10;;;;;;5095956;28;20036;-75
2022/05/08 08:54:04;;;;;;;14.73;7.15;;;19.00;61.90;;;;;;5096377;28;20035;-78
2022/05/08 08:56:31;;;;;;;13.35;6.82;;;19.10;61.40;;;;;;5112963;28;20097;-75
2022/05/08 08:59:00;;;;;;;13.00;6.40;;;19.30;61.00;;;;;;5076586;28;20051;-76
2022/05/08 09:01:26;;;;;;;11.50;6.47;;;19.50;60.20;;;;;;5093633;27;20046;-75
2022/05/08 09:03:56;;;;;;;;;;;19.70;59.50;;;;;;5123664;27;20455;-80
2022/05/08 09:06:22;;;;;;;10.50;6.55;;;19.90;59.80;;;;;;5095644;28;20149;-76
2022/05/08 09:08:50;;;;;;;;;;;20.10;58.80;;;;;;5096466;28;20066;-74
2022/05/08 09:11:35;;;;;;;9.32;6.10;;;20.30;59.60;;;;;;5096023;28;19922;-75
2022/05/08 09:14:05;;;;;;;10.82;6.90;;;20.50;58.30;;;;;;5075558;28;20040;-76
2022/05/08 09:17:09;;;;;;;10.80;6.40;;;20.70;57.50;;;;;;5092212;28;20066;-75
2022/05/08 09:19:38;;;;;;;14.88;6.25;;;20.90;56.80;;;;;;5093714;28;20033;-80
2022/05/08 09:22:07;;;;;;;11.30;6.10;;;21.10;55.20;;;;;;5092097;28;20035;-75
2022/05/08 09:24:52;;;;;;;16.20;5.70;;;21.30;54.60;;;;;;5092168;28;20044;-77
2022/05/08 09:27:19;;;;;;;8.77;5.45;;;21.70;53.70;;;;;;5081489;28;20060;-75
2022/05/08 09:29:45;;;;;;;9.35;6.05;;;22.30;52.60;;;;;;5078381;28;20500;-80
2022/05/08 09:32:50;;;;;;;9.82;5.72;;;22.60;51.60;;;;;;5095145;28;20047;-75
2022/05/08 09:35:21;;;;;;;10.73;5.78;;;23.00;51.60;;;;;;5113171;28;20042;-80
2022/05/08 09:38:06;;;;;;;9.38;5.45;;;23.40;49.90;;;;;;5114059;28;20079;-81
2022/05/08 09:40:32;;;;;;;12.30;5.75;;;24.50;48.50;;;;;;5094888;28;20107;-80
2022/05/08 09:42:59;;;;;;;11.25;5.40;;;24.90;46.90;;;;;;5112937;28;20065;-80
2022/05/08 09:45:25;;;;;;;11.57;5.35;;;24.90;45.70;;;;;;5078120;28;20031;-80
2022/05/08 09:47:51;;;;;;;13.07;5.25;;;25.10;45.40;;;;;;5095282;28;20100;-77
2022/05/08 09:50:18;;;;;;;10.63;4.88;;;25.40;43.90;;;;;;5097850;27;20031;-76
2022/05/08 09:52:45;;;;;;;10.95;5.60;;;25.40;42.60;;;;;;5115864;27;20168;-79
2022/05/08 09:55:13;;;;;;;8.60;5.20;;;26.20;41.50;;;;;;5115225;27;20035;-75
2022/05/08 09:57:40;;;;;;;10.98;5.35;;;26.30;40.80;;;;;;5106707;28;20040;-80
2022/05/08 10:00:09;;;;;;;10.13;5.30;;;26.20;39.80;;;;;;5078107;28;20035;-76
2022/05/08 10:02:37;;;;;;;8.65;5.03;;;26.00;40.50;;;;;;5095371;28;20537;-75
2022/05/08 10:05:06;;;;;;;10.50;5.03;;;26.00;40.50;;;;;;5094646;28;20484;-75
2022/05/08 10:07:37;;;;;;;15.40;6.05;;;25.80;39.20;;;;;;5113386;28;20028;-76
2022/05/08 10:15:48;;;;;;;12.10;5.18;;;26.10;39.00;;;;;;5089171;28;20042;-75
2022/05/08 10:18:26;;;;;;;11.52;5.45;;;26.30;39.10;;;;;;5110892;28;20429;-80
2022/05/08 10:21:13;;;;;;;8.55;6.03;;;26.20;38.90;;;;;;5094504;28;20035;-80
2022/05/08 10:23:59;;;;;;;;;;;26.30;38.90;;;;;;5095291;28;20138;-75
2022/05/08 10:26:25;;;;;;;10.02;6.60;;;26.50;39.70;;;;;;5092105;28;19961;-80
2022/05/08 10:29:13;;;;;;;9.30;5.05;;;26.80;38.30;;;;;;5091631;28;20045;-75
2022/05/08 10:31:53;;;;;;;9.30;4.70;;;27.00;38.10;;;;;;5074376;28;20428;-77
2022/05/08 10:34:39;;;;;;;8.05;5.00;;;27.30;36.60;;;;;;5074710;28;20035;-76
2022/05/08 10:37:25;;;;;;;10.00;5.15;;;27.70;35.80;;;;;;5057514;28;20477;-81
2022/05/08 10:39:53;;;;;;;12.23;6.38;;;27.60;36.10;;;;;;5074630;28;20472;-80
2022/05/08 10:48:30;;;;;;;8.60;5.60;;;28.90;33.70;;;;;;5092615;28;20136;-75
2022/05/08 10:50:59;;;;;;;7.88;4.78;;;29.60;33.00;;;;;;5091979;28;20052;-73
2022/05/08 10:53:44;;;;;;;7.15;4.35;;;30.60;30.40;;;;;;5057633;28;20070;-76
2022/05/08 10:56:11;;;;;;;9.07;4.65;;;30.50;31.20;;;;;;5057136;28;20128;-79
2022/05/08 10:58:45;;;;;;;11.77;7.00;;;30.30;31.00;;;;;;5073466;28;20043;-75
2022/05/08 11:01:12;;;;;;;8.88;4.90;;;31.40;29.90;;;;;;5074642;28;20124;-74
2022/05/08 11:03:44;;;;;;;10.52;4.97;;;32.20;29.30;;;;;;5077192;28;20067;-74
2022/05/08 11:06:19;;;;;;;8.70;4.88;;;32.80;28.20;;;;;;5095870;28;20060;-74
2022/05/08 11:08:45;;;;;;;8.23;4.57;;;33.20;28.00;;;;;;5061365;28;20078;-80
2022/05/08 11:11:14;;;;;;;9.13;4.53;;;32.60;28.00;;;;;;5077446;28;20502;-75
2022/05/08 11:13:59;;;;;;;7.40;3.92;;;32.00;28.30;;;;;;5059933;28;20043;-79
2022/05/08 11:16:44;;;;;;;8.00;4.78;;;31.80;28.50;;;;;;5077005;28;20036;-75
2022/05/08 11:19:13;;;;;;;8.20;4.60;;;33.10;28.10;;;;;;5096106;28;20036;-80
2022/05/08 11:21:39;;;;;;;9.48;4.55;;;34.60;25.80;;;;;;5073908;28;20071;-75
2022/05/08 11:24:06;;;;;;;8.85;4.43;;;36.20;24.90;;;;;;5059961;28;20044;-80
2022/05/08 11:26:50;;;;;;;7.60;4.60;;;37.40;23.70;;;;;;5077287;28;20420;-75
2022/05/08 11:29:16;;;;;;;9.90;4.80;;;38.60;22.90;;;;;;5110456;28;20097;-80
2022/05/08 11:36:04;;;;;;;7.93;4.63;;;38.70;21.50;;;;;;5097717;28;20160;-79
2022/05/08 11:37:20;;;;;;;6.75;4.07;;;39.60;21.30;;;;;;5100433;28;20450;-74
2022/05/08 11:39:52;;;;;;;9.95;4.45;;;39.80;20.60;;;;;;5097773;28;20077;-75
2022/05/08 11:42:21;;;;;;;8.00;3.90;;;40.10;20.10;;;;;;5115920;28;20468;-78
2022/05/08 11:45:04;;;;;;;12.10;4.70;;;40.30;20.20;;;;;;5096832;28;20428;-80
2022/05/08 11:47:30;;;;;;;9.43;4.97;;;41.40;20.10;;;;;;5080491;28;20539;-75
2022/05/08 11:49:56;;;;;;;7.40;3.83;;;42.30;19.10;;;;;;5097757;28;20426;-75
2022/05/08 11:52:22;;;;;;;7.88;4.32;;;42.90;18.00;;;;;;5097245;28;20040;-75
2022/05/08 11:55:08;;;;;;;9.65;4.50;;;43.30;18.10;;;;;;5097654;28;20381;-79
2022/05/08 11:57:54;;;;;;;8.05;5.15;;;43.20;18.20;;;;;;5097483;28;20040;-79
2022/05/08 12:00:20;;;;;;;7.78;4.47;;;43.60;18.40;;;;;;5096950;28;20093;-79
2022/05/08 12:02:48;;;;;;;6.05;4.30;;;44.10;17.50;;;;;;5115869;28;20043;-79
2022/05/08 12:05:34;;;;;;;8.90;5.63;;;43.90;16.90;;;;;;5097040;28;20054;-79
2022/05/08 12:08:02;;;;;;;6.57;4.60;;;43.80;16.60;;;;;;5097562;28;20114;-76
2022/05/08 12:10:47;;;;;;;6.10;4.30;;;43.90;16.80;;;;;;5114966;28;20053;-75
2022/05/08 12:13:13;;;;;;;8.50;4.97;;;44.60;17.10;;;;;;5114147;28;20104;-75
2022/05/08 12:15:39;;;;;;;6.95;4.40;;;44.80;16.10;;;;;;5114947;28;20032;-76
2022/05/08 12:18:06;;;;;;;7.70;4.18;;;44.80;16.10;;;;;;5097268;28;20119;-75
2022/05/08 12:20:53;;;;;;;8.52;4.53;;;45.10;15.80;;;;;;5079500;28;20036;-76
2022/05/08 12:23:19;;;;;;;8.73;3.83;;;45.40;16.30;;;;;;5115008;28;20396;-77
2022/05/08 12:25:46;;;;;;;5.93;4.40;;;45.70;15.40;;;;;;5114726;28;20427;-75
2022/05/08 12:28:13;;;;;;;5.32;3.92;;;45.90;15.20;;;;;;5114613;28;20465;-75
2022/05/08 12:30:39;;;;;;;8.80;4.45;;;45.00;15.60;;;;;;5114369;28;20046;-78
2022/05/08 12:33:06;;;;;;;8.57;4.10;;;44.60;16.00;;;;;;5115348;28;20070;-74
2022/05/08 12:35:35;;;;;;;5.60;4.05;;;45.40;15.40;;;;;;5079229;28;20520;-79
2022/05/08 12:38:02;;;;;;;5.97;4.05;;;44.50;15.60;;;;;;5096816;28;20392;-79
2022/05/08 12:40:29;;;;;;;6.88;3.88;;;43.10;16.50;;;;;;5114439;28;20043;-78
2022/05/08 12:42:55;;;;;;;8.68;4.60;;;41.60;17.40;;;;;;5115037;28;20024;-78
2022/05/08 12:45:21;;;;;;;6.18;4.57;;;39.90;17.90;;;;;;5074625;28;20082;-76
2022/05/08 12:47:47;;;;;;;7.75;4.20;;;39.90;18.30;;;;;;5076363;28;20064;-78
2022/05/08 12:50:16;;;;;;;8.75;4.63;;;41.30;17.50;;;;;;5093868;28;20050;-75
2022/05/08 12:52:45;;;;;;;6.35;4.40;;;40.50;17.90;;;;;;5094564;28;20366;-77
2022/05/08 12:55:11;;;;;;;10.25;4.00;;;39.30;18.70;;;;;;5093767;28;20043;-79
2022/05/08 13:00:32;;;;;;;6.75;3.70;;;38.40;19.30;;;;;;5097504;28;20055;-78
2022/05/08 13:03:00;;;;;;;7.50;3.83;;;39.50;19.10;;;;;;5096265;28;20065;-78
2022/05/08 13:05:26;;;;;;;8.25;3.90;;;38.90;18.50;;;;;;5096060;28;20031;-79
2022/05/08 13:07:52;;;;;;;9.43;4.25;;;39.30;18.80;;;;;;5114568;28;20087;-78
2022/05/08 13:10:18;;;;;;;11.32;4.20;;;38.50;19.00;;;;;;5095306;28;20475;-75
2022/05/08 13:12:44;;;;;;;8.70;3.70;;;37.00;20.00;;;;;;5095905;28;20122;-76
2022/05/08 13:15:10;;;;;;;9.70;4.50;;;35.80;20.60;;;;;;5094511;28;20503;-78
2022/05/08 13:17:36;;;;;;;10.40;3.90;;;36.00;21.40;;;;;;5079167;28;20077;-76
2022/05/08 13:20:04;;;;;;;7.95;4.30;;;37.50;20.50;;;;;;5095734;28;20028;-76
2022/05/08 13:22:30;;;;;;;6.43;3.30;;;38.90;18.50;;;;;;5113932;28;20118;-76
2022/05/08 13:24:56;;;;;;;7.63;3.80;;;39.10;17.90;;;;;;5094832;28;20052;-75
2022/05/08 13:27:22;;;;;;;9.35;3.90;;;38.00;19.40;;;;;;5113736;28;20023;-79
2022/05/08 13:29:48;;;;;;;7.15;3.85;;;36.70;20.20;;;;;;5084670;28;20484;-79
2022/05/08 13:32:15;;;;;;;8.35;3.83;;;36.90;20.00;;;;;;5093482;28;20055;-79
2022/05/08 13:34:42;;;;;;;11.02;3.85;;;38.50;19.20;;;;;;5075356;28;20024;-80
2022/05/08 13:37:08;;;;;;;7.15;3.85;;;38.60;19.00;;;;;;5093263;28;20139;-78
2022/05/08 13:39:37;;;;;;;9.35;3.90;;;38.70;18.60;;;;;;5093408;28;20115;-78
2022/05/08 13:42:04;;;;;;;6.18;3.42;;;37.30;19.30;;;;;;5074710;28;20552;-75
2022/05/08 13:44:31;;;;;;;13.63;3.88;;;36.10;20.60;;;;;;5099390;28;20118;-78